Inicio METAR Ruta Wind Satelite

Informe Meteorológico

Fecha: 2021/09/21 14:50:40 Local
2021.09.21 19:50 UTC


Operación:
SKIP 211900Z 09007KT 9999 VCSH FEW010 BKN016 13/10 Q1028 RMK VCSH/E A3038 =